Time;durP1;ratioP1;P1;durP2;ratioP2;P2;SDS_P1;SDS_P2;PMS_P1;PMS_P2;Temp;Humidity;BMP_temperature;BMP_pressure;BME280_temperature;BME280_humidity;BME280_pressure;Samples;Min_cycle;Max_cycle;Signal;HPM_P1;HPM_P2
2024/01/16 00:02:07;;;;;;;5.82;1.35;;;;;;;1.97;100.00;99345.31;5188994;28;20053;-74
2024/01/16 00:04:39;;;;;;;7.43;1.33;;;;;;;2.02;100.00;99346.03;5191911;28;20079;-76
2024/01/16 00:07:10;;;;;;;5.97;1.50;;;;;;;2.04;100.00;99359.72;5188349;28;20171;-76
2024/01/16 00:09:40;;;;;;;5.05;1.40;;;;;;;2.15;100.00;99356.03;5190621;28;20078;-76
2024/01/16 00:12:10;;;;;;;5.47;1.10;;;;;;;2.17;100.00;99361.16;5191118;28;20128;-75
2024/01/16 00:14:40;;;;;;;4.30;1.42;;;;;;;2.06;100.00;99357.97;5195291;28;20258;-76
2024/01/16 00:17:11;;;;;;;4.05;1.35;;;;;;;2.14;100.00;99376.72;5189080;28;20540;-75
2024/01/16 00:19:41;;;;;;;4.55;1.23;;;;;;;2.18;100.00;99374.00;5191612;28;20030;-75
2024/01/16 00:22:12;;;;;;;6.75;1.10;;;;;;;2.19;100.00;99374.88;5187503;28;20052;-74
2024/01/16 00:24:42;;;;;;;6.07;1.30;;;;;;;2.16;100.00;99374.94;5194874;28;20406;-73
2024/01/16 00:27:12;;;;;;;4.50;1.02;;;;;;;2.14;100.00;99382.69;5193510;28;20038;-75
2024/01/16 00:29:42;;;;;;;6.35;1.17;;;;;;;2.16;100.00;99385.25;5193942;28;20029;-75
2024/01/16 00:32:15;;;;;;;3.58;1.08;;;;;;;2.18;100.00;99386.06;5193125;28;20523;-75
2024/01/16 00:34:46;;;;;;;4.70;1.00;;;;;;;2.16;100.00;99401.53;5192542;28;20454;-75
2024/01/16 00:37:16;;;;;;;4.25;1.00;;;;;;;2.17;100.00;99392.09;5190149;28;20101;-75
2024/01/16 00:39:47;;;;;;;6.88;1.17;;;;;;;2.15;100.00;99396.44;5191177;28;20082;-75
2024/01/16 00:42:17;;;;;;;5.65;1.20;;;;;;;2.16;100.00;99395.56;5190500;28;20041;-74
2024/01/16 00:44:48;;;;;;;2.97;1.05;;;;;;;2.22;100.00;99400.56;5187410;28;20026;-75
2024/01/16 00:47:18;;;;;;;4.70;1.20;;;;;;;2.15;100.00;99388.69;5186261;28;20034;-75
2024/01/16 00:49:48;;;;;;;6.85;0.90;;;;;;;2.24;100.00;99393.66;5189758;28;20635;-74
2024/01/16 00:52:19;;;;;;;4.55;1.00;;;;;;;2.18;100.00;99388.63;5188803;28;20103;-74
2024/01/16 00:54:49;;;;;;;3.75;0.95;;;;;;;2.15;99.92;99409.31;5190788;28;20040;-74
2024/01/16 00:57:19;;;;;;;5.75;0.98;;;;;;;2.20;100.00;99399.75;5193272;28;20029;-75
2024/01/16 00:59:50;;;;;;;3.40;0.90;;;;;;;2.07;100.00;99406.03;5189868;28;20045;-76
2024/01/16 01:02:20;;;;;;;4.40;1.00;;;;;;;1.95;100.00;99409.72;5193646;28;20210;-75
2024/01/16 01:04:50;;;;;;;4.22;1.00;;;;;;;1.99;100.00;99402.78;5186174;28;20056;-75
2024/01/16 01:07:20;;;;;;;4.15;1.10;;;;;;;1.89;100.00;99417.56;5188675;28;20041;-75
2024/01/16 01:09:51;;;;;;;5.03;0.93;;;;;;;2.01;100.00;99416.47;5191774;28;20029;-75
2024/01/16 01:12:22;;;;;;;2.70;1.23;;;;;;;2.02;100.00;99426.72;5211305;28;20025;-74
2024/01/16 01:14:53;;;;;;;3.78;0.82;;;;;;;1.95;100.00;99429.44;5185548;28;20099;-75
2024/01/16 01:17:23;;;;;;;3.25;0.90;;;;;;;2.00;100.00;99425.91;5192742;28;20029;-76
2024/01/16 01:19:53;;;;;;;3.65;0.80;;;;;;;2.06;100.00;99445.56;5186574;28;20033;-75
2024/01/16 01:22:24;;;;;;;4.70;0.85;;;;;;;2.02;100.00;99449.06;5185430;28;20067;-75
2024/01/16 01:24:54;;;;;;;2.45;0.88;;;;;;;2.02;100.00;99454.22;5186531;28;20106;-75
2024/01/16 01:27:25;;;;;;;2.88;0.73;;;;;;;1.97;100.00;99461.19;5189571;28;20044;-75
2024/01/16 01:29:55;;;;;;;2.88;0.90;;;;;;;1.92;100.00;99465.56;5182916;28;20038;-75
2024/01/16 01:32:26;;;;;;;3.97;1.00;;;;;;;2.02;100.00;99472.25;5192896;28;20028;-75
2024/01/16 01:34:57;;;;;;;5.13;1.38;;;;;;;1.98;100.00;99476.63;5188034;28;20026;-75
2024/01/16 01:37:27;;;;;;;4.55;0.95;;;;;;;1.85;100.00;99474.31;5191368;28;20029;-76
2024/01/16 01:39:57;;;;;;;4.88;1.02;;;;;;;1.88;100.00;99487.13;5189547;28;20036;-75
2024/01/16 01:42:28;;;;;;;3.90;1.00;;;;;;;1.90;100.00;99481.06;5189435;28;20454;-74
2024/01/16 01:44:58;;;;;;;3.58;0.80;;;;;;;2.03;100.00;99481.69;5187745;28;20122;-75
2024/01/16 01:47:30;;;;;;;1.90;0.70;;;;;;;1.97;100.00;99477.50;5192668;28;20025;-75
2024/01/16 01:50:03;;;;;;;2.65;0.70;;;;;;;1.93;99.77;99475.00;5188080;28;20029;-74
2024/01/16 01:52:34;;;;;;;0.82;0.50;;;;;;;1.98;99.00;99475.78;5191940;28;20572;-75
2024/01/16 01:55:07;;;;;;;2.00;0.52;;;;;;;1.91;98.10;99487.06;5186113;28;20073;-75
2024/01/16 01:57:39;;;;;;;3.65;0.50;;;;;;;2.03;98.57;99486.84;5190902;28;20022;-73
2024/01/16 02:00:10;;;;;;;4.38;1.88;;;;;;;1.97;97.54;99492.94;5190428;28;20033;-75
2024/01/16 02:02:42;;;;;;;1.05;0.52;;;;;;;1.98;97.43;99494.63;5189105;28;20044;-75
2024/01/16 02:05:12;;;;;;;1.83;0.50;;;;;;;2.06;97.28;99499.66;5185119;28;20026;-75
2024/01/16 02:07:43;;;;;;;1.60;0.57;;;;;;;2.07;97.64;99488.47;5191279;28;20391;-75
2024/01/16 02:10:13;;;;;;;1.15;0.43;;;;;;;2.10;96.74;99498.72;5189917;28;20021;-75
2024/01/16 02:12:44;;;;;;;0.98;0.40;;;;;;;1.96;97.22;99495.56;5187476;28;20504;-74
2024/01/16 02:15:14;;;;;;;8.02;0.98;;;;;;;2.02;97.13;99500.59;5189582;28;20140;-74
2024/01/16 02:17:47;;;;;;;2.20;0.73;;;;;;;2.06;97.25;99497.06;5188687;28;20028;-72
2024/01/16 02:20:17;;;;;;;4.40;0.95;;;;;;;2.09;97.57;99499.59;5186638;28;20043;-75
2024/01/16 02:22:53;;;;;;;2.28;0.80;;;;;;;2.15;96.98;99502.06;5186256;28;21103;-75
2024/01/16 02:25:24;;;;;;;4.50;0.80;;;;;;;2.01;96.85;99511.78;5189655;28;20176;-75
2024/01/16 02:27:54;;;;;;;8.05;0.98;;;;;;;2.13;97.40;99514.97;5189086;28;20511;-75
2024/01/16 02:30:25;;;;;;;2.30;0.90;;;;;;;1.98;98.15;99522.97;5183387;28;20029;-74
2024/01/16 02:32:55;;;;;;;4.90;0.75;;;;;;;1.96;98.18;99524.75;5187390;28;20037;-75
2024/01/16 02:35:25;;;;;;;3.38;0.98;;;;;;;1.94;97.76;99523.91;5188774;28;20018;-75
2024/01/16 02:37:56;;;;;;;2.75;0.98;;;;;;;2.02;97.29;99518.63;5185373;28;20053;-75
2024/01/16 02:40:26;;;;;;;3.60;0.95;;;;;;;2.00;97.00;99518.66;5193503;28;20025;-74
2024/01/16 02:42:57;;;;;;;2.95;0.82;;;;;;;1.96;97.53;99522.16;5191678;28;20029;-74
2024/01/16 02:45:27;;;;;;;3.70;0.90;;;;;;;1.95;98.03;99523.03;5190203;28;20540;-74
2024/01/16 02:47:58;;;;;;;5.78;1.00;;;;;;;1.90;98.34;99527.44;5190126;28;20029;-75
2024/01/16 02:50:28;;;;;;;2.97;0.80;;;;;;;1.90;98.09;99537.72;5194987;28;20394;-75
2024/01/16 02:52:58;;;;;;;2.55;0.80;;;;;;;1.90;99.12;99542.88;5190366;28;20528;-75
2024/01/16 02:55:29;;;;;;;4.72;0.93;;;;;;;1.91;98.51;99538.56;5195175;28;20028;-74
2024/01/16 02:57:59;;;;;;;4.45;0.90;;;;;;;1.82;98.74;99546.47;5193572;28;20025;-74
2024/01/16 03:00:30;;;;;;;7.93;0.95;;;;;;;1.72;98.83;99547.50;5190930;28;20445;-75
2024/01/16 03:03:00;;;;;;;4.93;0.75;;;;;;;1.78;98.47;99567.97;5192332;28;20160;-76
2024/01/16 03:05:30;;;;;;;6.10;0.82;;;;;;;1.64;98.13;99559.66;5190668;28;20025;-74
2024/01/16 03:08:01;;;;;;;4.75;0.95;;;;;;;1.78;98.06;99570.56;5192517;28;20482;-75
2024/01/16 03:10:31;;;;;;;1.25;0.60;;;;;;;1.68;96.93;99568.16;5192131;28;20029;-76
2024/01/16 03:13:02;;;;;;;3.45;0.80;;;;;;;1.65;96.87;99566.50;5184725;28;20033;-74
2024/01/16 03:15:33;;;;;;;3.83;0.70;;;;;;;1.66;97.02;99580.22;5193184;28;20104;-76
2024/01/16 03:18:03;;;;;;;4.97;1.10;;;;;;;1.71;97.11;99575.84;5186287;28;20551;-75
2024/01/16 03:20:33;;;;;;;2.33;0.80;;;;;;;1.67;97.27;99572.47;5191885;28;20033;-75
2024/01/16 03:23:04;;;;;;;2.42;0.52;;;;;;;1.67;97.38;99569.91;5187912;28;20038;-75
2024/01/16 03:25:38;;;;;;;2.90;0.73;;;;;;;1.79;97.52;99577.44;5182951;28;20530;-75
2024/01/16 03:28:10;;;;;;;2.50;0.83;;;;;;;1.67;97.55;99585.34;5190188;28;20059;-74
2024/01/16 03:30:40;;;;;;;6.90;1.05;;;;;;;1.80;98.26;99592.84;5189460;28;20041;-75
2024/01/16 03:33:11;;;;;;;3.58;0.68;;;;;;;1.67;98.61;99595.66;5185699;28;20033;-75
2024/01/16 03:35:41;;;;;;;8.55;1.25;;;;;;;1.73;98.18;99595.53;5189536;28;20135;-75
2024/01/16 03:38:11;;;;;;;4.05;0.60;;;;;;;1.77;98.00;99592.03;5189861;28;20503;-74
2024/01/16 03:40:41;;;;;;;2.08;0.70;;;;;;;1.75;98.04;99598.94;5194235;28;20034;-74
2024/01/16 03:43:12;;;;;;;2.63;0.77;;;;;;;1.76;97.52;99610.94;5192130;28;20032;-74
2024/01/16 03:45:42;;;;;;;5.88;0.90;;;;;;;1.71;96.97;99610.16;5191767;28;20124;-75
2024/01/16 03:48:12;;;;;;;6.80;0.82;;;;;;;1.75;97.14;99614.38;5190461;28;20036;-75
2024/01/16 03:50:45;;;;;;;2.70;0.77;;;;;;;1.74;96.48;99617.84;5196049;28;20033;-75
2024/01/16 03:53:15;;;;;;;5.15;0.90;;;;;;;1.66;96.94;99622.25;5189213;28;20036;-72
2024/01/16 03:55:46;;;;;;;1.55;0.60;;;;;;;1.72;96.27;99639.34;5193632;28;20560;-74
2024/01/16 03:58:16;;;;;;;2.95;0.70;;;;;;;1.62;96.24;99632.63;5191173;28;20088;-75
2024/01/16 04:00:47;;;;;;;6.47;0.98;;;;;;;1.63;96.54;99631.75;5188672;28;20029;-73
2024/01/16 04:03:17;;;;;;;6.35;0.88;;;;;;;1.68;96.53;99637.66;5188681;28;20060;-74
2024/01/16 04:05:48;;;;;;;3.58;1.00;;;;;;;1.64;96.41;99631.75;5190325;28;20398;-75
2024/01/16 04:08:18;;;;;;;3.85;0.80;;;;;;;1.62;96.49;99633.50;5191218;28;20029;-75
2024/01/16 04:10:48;;;;;;;3.85;1.00;;;;;;;1.62;95.99;99648.06;5193565;28;20437;-75
2024/01/16 04:13:19;;;;;;;6.10;0.98;;;;;;;1.63;96.22;99645.50;5188447;28;20405;-75
2024/01/16 04:15:49;;;;;;;4.43;0.90;;;;;;;1.61;96.66;99652.34;5192385;28;20043;-73
2024/01/16 04:18:19;;;;;;;5.05;0.98;;;;;;;1.52;96.43;99647.34;5190927;28;20021;-75
2024/01/16 04:20:51;;;;;;;8.60;1.10;;;;;;;1.62;96.63;99641.22;5195362;28;20033;-73
2024/01/16 04:23:21;;;;;;;3.90;0.90;;;;;;;1.54;96.02;99645.59;5197251;28;20028;-75
2024/01/16 04:25:52;;;;;;;5.75;1.17;;;;;;;1.51;96.75;99645.66;5190099;28;20401;-73
2024/01/16 04:28:22;;;;;;;6.03;1.20;;;;;;;1.40;97.17;99644.94;5189215;28;20029;-76
2024/01/16 04:30:52;;;;;;;4.65;0.90;;;;;;;1.52;96.94;99646.50;5188441;28;20122;-72
2024/01/16 04:33:22;;;;;;;5.47;1.13;;;;;;;1.47;96.84;99646.59;5193379;28;20037;-74
2024/01/16 04:35:53;;;;;;;4.60;1.30;;;;;;;1.42;97.19;99655.22;5195807;28;20397;-72
2024/01/16 04:38:23;;;;;;;3.95;1.20;;;;;;;1.54;97.48;99645.59;5191194;28;20139;-75
2024/01/16 04:40:53;;;;;;;3.38;0.90;;;;;;;1.62;96.61;99655.78;5187474;28;20100;-74
2024/01/16 04:43:24;;;;;;;8.73;1.30;;;;;;;1.56;96.67;99653.31;5189929;28;20041;-75
2024/01/16 04:45:54;;;;;;;3.83;1.02;;;;;;;1.60;96.72;99657.53;5192145;28;20033;-75
2024/01/16 04:48:24;;;;;;;9.23;1.63;;;;;;;1.64;97.08;99657.47;5190448;28;20022;-75
2024/01/16 04:50:55;;;;;;;8.80;1.10;;;;;;;1.56;96.65;99656.72;5189120;28;20095;-73
2024/01/16 04:53:25;;;;;;;2.95;0.70;;;;;;;1.67;97.06;99657.44;5186909;28;20120;-73
2024/01/16 04:55:55;;;;;;;4.53;0.90;;;;;;;1.60;97.04;99662.69;5187634;28;20030;-74
2024/01/16 04:58:26;;;;;;;7.97;1.13;;;;;;;1.53;96.95;99654.22;5189569;28;20021;-75
2024/01/16 05:00:56;;;;;;;4.35;0.60;;;;;;;1.62;97.52;99654.09;5188124;28;20037;-75
2024/01/16 05:03:27;;;;;;;6.53;1.10;;;;;;;1.70;96.51;99657.38;5191620;28;20148;-75
2024/01/16 05:05:57;;;;;;;9.68;1.08;;;;;;;1.57;96.51;99653.28;5185897;28;20026;-75
2024/01/16 05:08:28;;;;;;;8.90;1.75;;;;;;;1.64;96.82;99649.75;5192371;28;20048;-75
2024/01/16 05:10:58;;;;;;;4.45;1.33;;;;;;;1.56;96.90;99649.00;5184515;28;20188;-74
2024/01/16 05:13:28;;;;;;;6.53;1.10;;;;;;;1.67;96.97;99648.84;5188696;28;20030;-75
2024/01/16 05:15:58;;;;;;;8.10;1.08;;;;;;;1.69;96.46;99658.25;5189825;28;20453;-74
2024/01/16 05:18:29;;;;;;;9.82;1.73;;;;;;;1.68;96.53;99648.84;5185810;28;20233;-74
2024/01/16 05:20:59;;;;;;;12.27;3.15;;;;;;;1.69;96.69;99655.69;5189715;28;20513;-75
2024/01/16 05:23:29;;;;;;;7.03;1.30;;;;;;;1.66;97.04;99652.28;5190876;28;20028;-74
2024/01/16 05:26:00;;;;;;;6.80;1.33;;;;;;;1.59;97.50;99664.41;5187029;28;20068;-75
2024/01/16 05:28:30;;;;;;;14.90;2.33;;;;;;;1.50;97.08;99658.53;5188037;28;20021;-75
2024/01/16 05:31:00;;;;;;;7.22;1.23;;;;;;;1.54;97.49;99658.47;5185762;28;20030;-75
2024/01/16 05:33:32;;;;;;;6.53;1.80;;;;;;;1.51;97.52;99660.22;5184366;28;20100;-75
2024/01/16 05:36:02;;;;;;;7.28;1.55;;;;;;;1.52;98.00;99654.22;5192045;28;20224;-75
2024/01/16 05:38:33;;;;;;;10.18;1.90;;;;;;;1.39;98.14;99657.84;5190968;28;20581;-75
2024/01/16 05:41:04;;;;;;;7.20;1.38;;;;;;;1.37;98.15;99657.88;5188206;28;20099;-74
2024/01/16 05:43:34;;;;;;;7.30;1.40;;;;;;;1.31;98.53;99659.66;5185811;28;20029;-75
2024/01/16 05:46:05;;;;;;;9.90;1.77;;;;;;;1.36;97.87;99663.88;5190515;28;20104;-75
2024/01/16 05:48:35;;;;;;;5.18;1.38;;;;;;;1.41;98.87;99658.69;5189986;28;20029;-75
2024/01/16 05:51:05;;;;;;;6.57;1.25;;;;;;;1.31;98.23;99660.53;5189874;28;20033;-72
2024/01/16 05:53:36;;;;;;;10.32;1.92;;;;;;;1.39;98.18;99666.41;5191177;28;20029;-73
2024/01/16 05:56:06;;;;;;;6.68;1.10;;;;;;;1.37;97.70;99668.16;5184327;28;20187;-72
2024/01/16 05:58:38;;;;;;;9.73;1.70;;;;;;;1.31;97.88;99668.25;5186363;28;20053;-74
2024/01/16 06:01:09;;;;;;;16.25;1.75;;;;;;;1.20;98.12;99679.56;5183396;28;20022;-74
2024/01/16 06:03:40;;;;;;;9.93;1.80;;;;;;;1.33;97.81;99673.34;5187357;28;20032;-75
2024/01/16 06:06:10;;;;;;;14.10;1.67;;;;;;;1.34;97.52;99675.06;5185844;28;20037;-75
2024/01/16 06:08:41;;;;;;;8.23;1.55;;;;;;;1.32;97.14;99680.25;5188881;28;20025;-75
2024/01/16 06:11:12;;;;;;;5.90;1.50;;;;;;;1.16;97.24;99689.03;5185197;28;20083;-75
2024/01/16 06:13:42;;;;;;;7.88;1.75;;;;;;;1.23;97.27;99682.09;5186194;28;20030;-75
2024/01/16 06:16:13;;;;;;;8.55;1.80;;;;;;;1.15;97.32;99694.19;5185431;28;20020;-75
2024/01/16 06:18:43;;;;;;;5.72;1.42;;;;;;;1.17;97.34;99693.31;5187900;28;20112;-75
2024/01/16 06:21:14;;;;;;;4.70;1.27;;;;;;;1.20;97.82;99700.97;5185258;28;20502;-74
2024/01/16 06:23:44;;;;;;;5.88;2.10;;;;;;;1.23;98.07;99694.94;5187625;28;20090;-75
2024/01/16 06:26:15;;;;;;;9.65;1.80;;;;;;;1.30;97.29;99692.28;5185145;28;20022;-74
2024/01/16 06:28:45;;;;;;;11.50;2.20;;;;;;;1.30;96.97;99697.44;5189307;28;20021;-74
2024/01/16 06:31:17;;;;;;;7.88;1.85;;;;;;;1.28;96.94;99691.44;5183898;28;20029;-75
2024/01/16 06:33:47;;;;;;;6.55;1.70;;;;;;;1.16;97.25;99689.03;5189542;28;20034;-73
2024/01/16 06:36:17;;;;;;;9.20;2.90;;;;;;;1.08;97.16;99687.41;5186569;28;20032;-74
2024/01/16 06:38:47;;;;;;;9.45;2.13;;;;;;;1.23;97.41;99689.81;5190230;28;20026;-74
2024/01/16 06:41:18;;;;;;;9.55;2.53;;;;;;;1.20;97.44;99695.00;5185020;28;20112;-74
2024/01/16 06:43:48;;;;;;;8.85;1.95;;;;;;;1.07;97.58;99689.13;5187988;28;20549;-73
2024/01/16 06:46:18;;;;;;;15.35;3.50;;;;;;;1.14;97.43;99690.78;5182978;28;20033;-75
2024/01/16 06:48:48;;;;;;;16.55;4.00;;;;;;;1.15;97.62;99699.31;5186932;28;20033;-72
2024/01/16 06:51:19;;;;;;;8.77;1.95;;;;;;;1.01;97.98;99701.19;5190868;28;20032;-76
2024/01/16 06:53:49;;;;;;;9.82;1.77;;;;;;;1.01;97.75;99688.34;5185683;28;20545;-74
2024/01/16 06:56:19;;;;;;;8.07;1.88;;;;;;;1.02;97.67;99692.59;5184375;28;20120;-74
2024/01/16 06:58:50;;;;;;;8.15;1.88;;;;;;;0.99;97.74;99698.66;5188548;28;20510;-74
2024/01/16 07:01:20;;;;;;;6.32;1.67;;;;;;;1.06;97.00;99699.44;5185472;28;20067;-74
2024/01/16 07:03:52;;;;;;;9.38;1.80;;;;;;;0.95;97.09;99699.56;5188009;28;20029;-74
2024/01/16 07:06:22;;;;;;;10.25;1.70;;;;;;;1.02;97.00;99705.47;5189035;28;20033;-74
2024/01/16 07:08:53;;;;;;;5.38;1.48;;;;;;;1.09;96.96;99707.94;5188777;28;20155;-74
2024/01/16 07:11:23;;;;;;;6.68;1.65;;;;;;;1.06;97.39;99713.16;5189795;28;20087;-75
2024/01/16 07:13:54;;;;;;;7.75;1.50;;;;;;;1.04;97.63;99720.03;5188058;28;20033;-75
2024/01/16 07:16:24;;;;;;;9.55;1.95;;;;;;;1.08;97.31;99710.56;5188308;28;20056;-74
2024/01/16 07:18:55;;;;;;;9.60;2.00;;;;;;;1.09;96.70;99718.25;5192189;28;20030;-75
2024/01/16 07:21:25;;;;;;;7.75;1.90;;;;;;;1.07;97.06;99720.00;5187226;28;20190;-74
2024/01/16 07:23:56;;;;;;;7.10;1.42;;;;;;;1.18;96.36;99717.28;5189058;28;20029;-74
2024/01/16 07:26:26;;;;;;;8.43;1.73;;;;;;;1.23;96.45;99724.09;5187822;28;20189;-75
2024/01/16 07:28:57;;;;;;;8.70;1.63;;;;;;;1.26;95.92;99721.47;5192195;28;20079;-75
2024/01/16 07:31:27;;;;;;;11.43;1.80;;;;;;;1.28;95.44;99724.91;5185827;28;20502;-75
2024/01/16 07:33:57;;;;;;;5.60;1.52;;;;;;;1.31;95.39;99735.16;5188391;28;20041;-74
2024/01/16 07:36:28;;;;;;;6.50;1.42;;;;;;;1.38;94.74;99725.63;5187732;28;20028;-75
2024/01/16 07:38:58;;;;;;;8.20;1.95;;;;;;;1.32;95.42;99731.72;5188752;28;20033;-75
2024/01/16 07:41:28;;;;;;;6.85;1.70;;;;;;;1.29;94.99;99730.88;5188198;28;20030;-74
2024/01/16 07:43:59;;;;;;;10.68;1.98;;;;;;;1.40;94.97;99734.19;5188700;28;20116;-74
2024/01/16 07:46:29;;;;;;;8.00;1.73;;;;;;;1.44;94.85;99730.69;5186477;28;20503;-73
2024/01/16 07:49:00;;;;;;;5.55;1.30;;;;;;;1.50;94.65;99731.47;5188327;28;20356;-74
2024/01/16 07:51:30;;;;;;;10.55;2.05;;;;;;;1.39;94.50;99730.75;5187647;28;20109;-75
2024/01/16 07:54:09;;;;;;;9.65;1.90;;;;;;;1.61;94.50;99727.00;5191421;28;20033;-76
2024/01/16 07:56:39;;;;;;;7.28;1.80;;;;;;;1.52;93.92;99727.16;5192858;28;20069;-75
2024/01/16 07:59:09;;;;;;;8.02;2.15;;;;;;;1.70;93.77;99729.47;5193606;28;20428;-72
2024/01/16 08:01:39;;;;;;;10.60;2.08;;;;;;;1.63;93.44;99727.88;5194356;28;20025;-75
2024/01/16 08:04:10;;;;;;;8.30;2.20;;;;;;;1.49;94.12;99740.06;5191093;28;20372;-71
2024/01/16 08:06:40;;;;;;;8.52;1.88;;;;;;;1.73;93.91;99726.03;5190382;28;20053;-75
2024/01/16 08:09:12;;;;;;;8.98;2.13;;;;;;;1.83;92.60;99726.69;5191825;28;20041;-72
2024/01/16 08:11:42;;;;;;;6.45;2.22;;;;;;;1.82;93.24;99731.88;5191779;28;20149;-74
2024/01/16 08:14:13;;;;;;;9.57;2.20;;;;;;;1.75;93.54;99732.00;5189912;28;20058;-74
2024/01/16 08:16:43;;;;;;;8.57;2.20;;;;;;;1.80;93.35;99736.22;5189417;28;20022;-75
2024/01/16 08:19:14;;;;;;;7.13;2.15;;;;;;;1.89;93.68;99746.38;5193809;28;20057;-75
2024/01/16 08:21:45;;;;;;;9.10;2.20;;;;;;;1.93;92.59;99741.16;5194719;28;20036;-75
2024/01/16 08:24:15;;;;;;;6.95;2.08;;;;;;;2.03;92.53;99744.44;5190831;28;20112;-75
2024/01/16 08:26:45;;;;;;;8.85;2.42;;;;;;;2.38;91.60;99743.03;5194380;28;20087;-75
2024/01/16 08:29:15;;;;;;;6.82;2.20;;;;;;;2.42;90.77;99733.50;5193493;28;20032;-73
2024/01/16 08:31:46;;;;;;;5.20;2.40;;;;;;;2.39;90.45;99737.00;5191332;28;20057;-75
2024/01/16 08:34:17;;;;;;;6.50;1.98;;;;;;;2.28;92.08;99738.91;5190607;28;20369;-73
2024/01/16 08:36:47;;;;;;;7.80;1.88;;;;;;;2.39;91.88;99733.56;5196334;28;20025;-75
2024/01/16 08:39:17;;;;;;;7.72;1.95;;;;;;;2.83;90.18;99736.25;5193823;28;20059;-75
2024/01/16 08:41:48;;;;;;;6.32;2.20;;;;;;;3.14;88.25;99732.19;5193717;28;20033;-75
2024/01/16 08:44:18;;;;;;;9.07;1.77;;;;;;;3.34;85.18;99735.25;5192409;28;20025;-73
2024/01/16 08:46:49;;;;;;;9.18;2.08;;;;;;;3.26;84.51;99737.97;5193172;28;20120;-75
2024/01/16 08:49:19;;;;;;;7.70;2.08;;;;;;;3.42;84.74;99738.50;5192157;28;20031;-75
2024/01/16 08:51:49;;;;;;;9.68;2.28;;;;;;;3.30;84.44;99734.44;5194236;28;20034;-75
2024/01/16 08:54:22;;;;;;;7.30;2.10;;;;;;;3.26;84.36;99740.56;5191814;28;20116;-74
2024/01/16 08:56:53;;;;;;;6.18;1.90;;;;;;;2.99;85.12;99742.81;5195550;28;20426;-74
2024/01/16 08:59:23;;;;;;;10.43;2.28;;;;;;;2.74;85.83;99742.41;5193259;28;20083;-75
2024/01/16 09:01:54;;;;;;;7.55;1.80;;;;;;;2.66;86.20;99733.94;5189519;28;20034;-75
2024/01/16 09:04:24;;;;;;;6.72;1.92;;;;;;;2.54;86.88;99748.78;5191851;28;20025;-75
2024/01/16 09:06:55;;;;;;;6.47;1.70;;;;;;;2.62;87.91;99749.50;5192571;28;20064;-75
2024/01/16 09:09:25;;;;;;;7.40;2.10;;;;;;;2.71;86.14;99751.94;5191540;28;20175;-75
2024/01/16 09:11:57;;;;;;;8.00;2.00;;;;;;;2.60;87.72;99749.53;5186491;28;20053;-74
2024/01/16 09:14:28;;;;;;;9.70;3.20;;;;;;;2.67;87.12;99750.28;5187139;28;20403;-76
2024/01/16 09:16:58;;;;;;;8.13;1.98;;;;;;;2.94;86.42;99750.63;5194768;28;20021;-75
2024/01/16 09:19:29;;;;;;;6.55;1.80;;;;;;;2.78;86.03;99749.22;5193568;28;20032;-74
2024/01/16 09:21:59;;;;;;;9.25;1.55;;;;;;;2.87;86.86;99750.78;5193077;28;20410;-75
2024/01/16 09:24:30;;;;;;;7.05;1.65;;;;;;;2.83;85.70;99755.13;5194003;28;20036;-75
2024/01/16 09:27:01;;;;;;;13.38;1.70;;;;;;;2.77;86.04;99756.97;5194964;28;20065;-75
2024/01/16 09:29:31;;;;;;;7.25;2.10;;;;;;;2.71;86.26;99755.34;5191061;28;20045;-75
2024/01/16 09:32:02;;;;;;;7.22;1.50;;;;;;;2.59;86.86;99749.53;5192606;28;20453;-72
2024/01/16 09:34:32;;;;;;;7.45;1.75;;;;;;;2.54;87.36;99752.19;5191601;28;20124;-74
2024/01/16 09:37:03;;;;;;;12.35;1.48;;;;;;;2.28;88.34;99744.06;5193946;28;20022;-74
2024/01/16 09:39:35;;;;;;;8.07;1.80;;;;;;;2.53;87.41;99757.41;5196972;28;20025;-75
2024/01/16 09:42:05;;;;;;;9.32;1.88;;;;;;;2.55;87.05;99741.03;5190702;28;20491;-75
2024/01/16 09:44:35;;;;;;;11.98;2.25;;;;;;;2.65;86.93;99747.72;5194078;28;20032;-75
2024/01/16 09:47:08;;;;;;;8.27;2.00;;;;;;;2.79;86.58;99747.47;5192398;28;20037;-75
2024/01/16 09:49:39;;;;;;;4.85;1.92;;;;;;;2.86;86.83;99759.41;5192718;28;20029;-75
2024/01/16 09:52:11;;;;;;;8.60;2.15;;;;;;;2.68;86.50;99759.72;5197414;28;20139;-76
2024/01/16 09:54:41;;;;;;;9.85;2.08;;;;;;;2.97;86.23;99754.88;5190364;28;20490;-75
2024/01/16 09:57:13;;;;;;;7.75;1.70;;;;;;;3.15;85.09;99751.94;5184918;28;20458;-73
2024/01/16 09:59:43;;;;;;;10.27;2.28;;;;;;;3.22;85.58;99750.97;5193997;28;20044;-75
2024/01/16 10:02:14;;;;;;;7.82;2.13;;;;;;;3.20;84.69;99752.72;5191663;28;20033;-74
2024/01/16 10:04:44;;;;;;;7.82;1.85;;;;;;;3.31;85.64;99761.09;5191937;28;20038;-72
2024/01/16 10:07:16;;;;;;;6.10;1.70;;;;;;;3.29;85.27;99752.53;5187423;28;20036;-71
2024/01/16 10:09:47;;;;;;;6.68;1.95;;;;;;;3.40;84.53;99748.03;5185700;28;20144;-75
2024/01/16 10:12:17;;;;;;;5.35;2.05;;;;;;;3.16;83.93;99754.50;5195989;28;20108;-73
2024/01/16 10:14:50;;;;;;;7.55;2.35;;;;;;;3.00;85.26;99757.44;5191865;28;20021;-76
2024/01/16 10:17:21;;;;;;;9.30;2.30;;;;;;;3.04;85.14;99762.47;5193657;28;20032;-75
2024/01/16 10:19:53;;;;;;;5.70;1.88;;;;;;;2.98;85.64;99770.34;5193186;28;20037;-72
2024/01/16 10:22:25;;;;;;;6.75;2.00;;;;;;;3.25;85.83;99762.09;5189339;28;20072;-72
2024/01/16 10:25:11;;;;;;;8.75;2.28;;;;;;;3.21;84.61;99762.19;5189673;28;20427;-75
2024/01/16 10:27:42;;;;;;;;;;;;;;;3.18;84.69;99770.81;5196264;28;20025;-75
2024/01/16 10:30:12;;;;;;;6.60;2.40;;;;;;;3.38;84.18;99765.28;5189993;28;20372;-75
2024/01/16 10:32:43;;;;;;;7.88;2.40;;;;;;;3.23;85.11;99770.75;5193667;28;20029;-76
2024/01/16 10:35:14;;;;;;;7.93;2.28;;;;;;;3.28;84.32;99772.34;5190225;28;20018;-74
2024/01/16 10:37:51;;;;;;;11.43;2.65;;;;;;;3.21;84.53;99769.91;5191804;28;20032;-76
2024/01/16 10:40:26;;;;;;;10.55;2.85;;;;;;;3.26;85.65;99762.94;5189761;28;20060;-75
2024/01/16 10:42:58;;;;;;;11.88;2.83;;;;;;;3.37;85.75;99764.41;5198278;28;20521;-75
2024/01/16 10:45:28;;;;;;;8.98;2.17;;;;;;;3.49;84.84;99761.59;5183131;28;20316;-76
2024/01/16 10:48:03;;;;;;;7.40;2.30;;;;;;;3.45;84.46;99772.00;5197212;28;20036;-73
2024/01/16 10:50:35;;;;;;;7.55;2.22;;;;;;;3.37;84.39;99771.31;5190615;28;20021;-73
2024/01/16 10:53:08;;;;;;;8.13;2.15;;;;;;;3.57;84.40;99775.19;5194620;28;20044;-75
2024/01/16 10:55:51;;;;;;;9.10;2.40;;;;;;;3.63;84.99;99770.75;5195445;28;20438;-74
2024/01/16 10:58:23;;;;;;;8.15;2.20;;;;;;;3.47;84.03;99765.94;5193733;28;20113;-75
2024/01/16 11:00:56;;;;;;;10.93;2.60;;;;;;;3.41;84.75;99763.50;5195441;28;20116;-74
2024/01/16 11:03:43;;;;;;;11.98;2.70;;;;;;;3.48;84.19;99757.31;5190844;28;20087;-73
2024/01/16 11:06:16;;;;;;;10.23;3.28;;;;;;;3.54;84.53;99753.75;5186963;28;20021;-75
2024/01/16 11:08:47;;;;;;;14.30;3.28;;;;;;;3.40;85.57;99760.94;5194784;28;20028;-75
2024/01/16 11:11:18;;;;;;;9.02;2.60;;;;;;;3.46;84.96;99765.97;5192735;28;20048;-75
2024/01/16 11:13:50;;;;;;;8.90;2.95;;;;;;;3.46;83.39;99756.50;5189364;28;20029;-75
2024/01/16 11:16:21;;;;;;;9.55;2.70;;;;;;;3.42;85.37;99761.75;5193721;28;20032;-75
2024/01/16 11:18:51;;;;;;;12.65;2.63;;;;;;;3.38;85.12;99763.53;5191187;28;20556;-74
2024/01/16 11:21:22;;;;;;;10.50;2.63;;;;;;;3.19;85.43;99759.59;5191107;28;20311;-76
2024/01/16 11:23:53;;;;;;;6.93;2.78;;;;;;;3.32;85.54;99762.78;5190580;28;20105;-75
2024/01/16 11:26:36;;;;;;;5.68;2.45;;;;;;;3.56;84.78;99762.31;5191753;28;20029;-75
2024/01/16 11:29:34;;;;;;;9.50;2.70;;;;;;;3.61;84.59;99767.34;5195560;28;20425;-75
2024/01/16 11:32:05;;;;;;;11.27;2.95;;;;;;;3.55;84.08;99764.03;5195811;28;20517;-76
2024/01/16 11:34:41;;;;;;;5.55;2.33;;;;;;;3.66;84.96;99768.13;5192383;28;20025;-74
2024/01/16 11:37:13;;;;;;;9.20;2.35;;;;;;;3.58;85.44;99755.38;5191009;28;20076;-75
2024/01/16 11:39:43;;;;;;;9.35;3.03;;;;;;;3.70;84.34;99748.22;5193001;28;20551;-74
2024/01/16 11:42:26;;;;;;;9.18;2.70;;;;;;;3.69;84.67;99747.41;5194073;28;20147;-75
2024/01/16 11:44:56;;;;;;;7.93;2.53;;;;;;;3.69;84.14;99749.97;5197336;28;20495;-74
2024/01/16 11:47:27;;;;;;;8.73;2.30;;;;;;;3.71;84.35;99747.34;5192719;28;20034;-75
2024/01/16 11:50:12;;;;;;;6.47;1.98;;;;;;;3.66;84.64;99739.72;5196728;28;20434;-74
2024/01/16 11:52:45;;;;;;;8.63;2.20;;;;;;;3.64;84.00;99756.13;5192723;28;20033;-76
2024/01/16 11:55:32;;;;;;;7.72;2.45;;;;;;;3.47;84.06;99750.44;5198967;28;20022;-76
2024/01/16 11:58:30;;;;;;;7.10;2.00;;;;;;;3.40;84.95;99758.34;5192639;28;20030;-75